AAL826 KATL-KRDU
Flight info
| Callsign | AAL826 |
|---|---|
| Flight time | 1h 0m |
| Altitude | 29000 |
| Route | GAIRY2 IRQ PYRES DMSTR2 |
| Aircraft | B738/M-VGDW/C |
Departure
| Time | 2026-05-07 14:59 |
|---|---|
| Airport | Hartsfield Jackson Atlanta International Airport (KATL) |
Arrival
| Time | 2026-05-07 15:59 |
|---|---|
| Airport | Raleigh-Durham International Airport (KRDU) |
| Time | Latitude | Longitude | Altitude | Speed | Heading |
|---|---|---|---|---|---|
| 2026-05-07 14:34 | 33.64216 | -84.43530 | 1012 ft | 0 kts | 269° |
| 2026-05-07 14:46 | 33.64217 | -84.43517 | 1012 ft | 2 kts | 269° |
| 2026-05-07 14:46 | 33.64217 | -84.43499 | 1012 ft | 2 kts | 269° |
| 2026-05-07 14:46 | 33.64217 | -84.43488 | 1011 ft | 1 kts | 270° |
| 2026-05-07 14:46 | 33.64220 | -84.43469 | 1012 ft | 2 kts | 235° |
| 2026-05-07 14:47 | 33.64232 | -84.43458 | 1011 ft | 2 kts | 195° |
| 2026-05-07 14:47 | 33.64241 | -84.43456 | 1012 ft | 1 kts | 177° |
| 2026-05-07 14:47 | 33.64248 | -84.43457 | 1011 ft | 0 kts | 179° |
| 2026-05-07 14:49 | 33.64234 | -84.43457 | 1011 ft | 9 kts | 182° |
| 2026-05-07 14:49 | 33.64106 | -84.43456 | 1012 ft | 19 kts | 180° |
| 2026-05-07 14:50 | 33.64089 | -84.43456 | 1011 ft | 0 kts | 180° |
| 2026-05-07 14:51 | 33.64027 | -84.43457 | 1011 ft | 18 kts | 181° |
| 2026-05-07 14:51 | 33.63918 | -84.43457 | 1011 ft | 6 kts | 181° |
| 2026-05-07 14:52 | 33.63876 | -84.43458 | 1011 ft | 5 kts | 181° |
| 2026-05-07 14:52 | 33.63844 | -84.43459 | 1011 ft | 4 kts | 180° |
| 2026-05-07 14:52 | 33.63820 | -84.43458 | 1011 ft | 2 kts | 180° |
| 2026-05-07 14:52 | 33.63804 | -84.43458 | 1011 ft | 0 kts | 180° |
| 2026-05-07 14:54 | 33.63787 | -84.43458 | 1011 ft | 11 kts | 180° |
| 2026-05-07 14:54 | 33.63682 | -84.43417 | 1011 ft | 17 kts | 123° |
| 2026-05-07 14:55 | 33.63664 | -84.43233 | 1009 ft | 28 kts | 90° |
| 2026-05-07 14:55 | 33.63667 | -84.42951 | 1007 ft | 37 kts | 89° |
| 2026-05-07 14:55 | 33.63657 | -84.42641 | 1001 ft | 30 kts | 90° |
| 2026-05-07 14:55 | 33.63657 | -84.42392 | 994 ft | 30 kts | 91° |
| 2026-05-07 14:56 | 33.63628 | -84.42146 | 986 ft | 28 kts | 123° |
| 2026-05-07 14:56 | 33.63582 | -84.41930 | 977 ft | 27 kts | 91° |
| 2026-05-07 14:56 | 33.63583 | -84.41685 | 967 ft | 29 kts | 91° |
| 2026-05-07 14:56 | 33.63581 | -84.41447 | 964 ft | 28 kts | 91° |
| 2026-05-07 14:57 | 33.63582 | -84.41221 | 963 ft | 25 kts | 90° |
| 2026-05-07 14:57 | 33.63585 | -84.41014 | 960 ft | 24 kts | 88° |
| 2026-05-07 14:57 | 33.63575 | -84.40860 | 954 ft | 17 kts | 133° |
| 2026-05-07 14:57 | 33.63480 | -84.40873 | 955 ft | 15 kts | 250° |
| 2026-05-07 14:58 | 33.63470 | -84.41013 | 960 ft | 34 kts | 270° |
| 2026-05-07 14:58 | 33.63472 | -84.41615 | 966 ft | 106 kts | 270° |
| 2026-05-07 14:58 | 33.63475 | -84.42726 | 1009 ft | 159 kts | 270° |
| 2026-05-07 14:58 | 33.63458 | -84.44205 | 1193 ft | 193 kts | 271° |
| 2026-05-07 14:59 | 33.63441 | -84.45946 | 1604 ft | 223 kts | 269° |
| 2026-05-07 14:59 | 33.63264 | -84.47864 | 2195 ft | 245 kts | 257° |
| 2026-05-07 14:59 | 33.62614 | -84.49773 | 3024 ft | 254 kts | 244° |
| 2026-05-07 14:59 | 33.61730 | -84.51605 | 3895 ft | 256 kts | 243° |
| 2026-05-07 15:00 | 33.60860 | -84.53451 | 4772 ft | 255 kts | 245° |
| 2026-05-07 15:00 | 33.60053 | -84.55283 | 5781 ft | 248 kts | 245° |
| 2026-05-07 15:00 | 33.59095 | -84.56952 | 6655 ft | 251 kts | 231° |
| 2026-05-07 15:00 | 33.57610 | -84.58154 | 7332 ft | 267 kts | 208° |
| 2026-05-07 15:01 | 33.55759 | -84.58617 | 7978 ft | 284 kts | 188° |
| 2026-05-07 15:01 | 33.53773 | -84.58543 | 8808 ft | 285 kts | 185° |
| 2026-05-07 15:01 | 33.51819 | -84.58366 | 9541 ft | 289 kts | 180° |
| 2026-05-07 15:01 | 33.49820 | -84.57719 | 10221 ft | 303 kts | 163° |
| 2026-05-07 15:02 | 33.48033 | -84.56293 | 10900 ft | 319 kts | 144° |
| 2026-05-07 15:02 | 33.46631 | -84.54167 | 11349 ft | 341 kts | 126° |
| 2026-05-07 15:02 | 33.45756 | -84.51427 | 11530 ft | 369 kts | 105° |
| 2026-05-07 15:02 | 33.45523 | -84.48277 | 11771 ft | 388 kts | 93° |
| 2026-05-07 15:03 | 33.45558 | -84.44996 | 11964 ft | 404 kts | 90° |
| 2026-05-07 15:03 | 33.45620 | -84.41613 | 12378 ft | 412 kts | 91° |
| 2026-05-07 15:03 | 33.45652 | -84.38174 | 12887 ft | 416 kts | 92° |
| 2026-05-07 15:03 | 33.45661 | -84.34689 | 13337 ft | 421 kts | 92° |
| 2026-05-07 15:04 | 33.45731 | -84.31177 | 13741 ft | 429 kts | 89° |
| 2026-05-07 15:04 | 33.45939 | -84.27619 | 14285 ft | 432 kts | 86° |
| 2026-05-07 15:04 | 33.46256 | -84.24007 | 14757 ft | 437 kts | 84° |
| 2026-05-07 15:04 | 33.46603 | -84.20382 | 15212 ft | 441 kts | 84° |
| 2026-05-07 15:05 | 33.46948 | -84.16727 | 15697 ft | 445 kts | 84° |
| 2026-05-07 15:05 | 33.47289 | -84.13027 | 16091 ft | 451 kts | 84° |
| 2026-05-07 15:05 | 33.47635 | -84.09293 | 16565 ft | 453 kts | 84° |
| 2026-05-07 15:05 | 33.47977 | -84.05567 | 16960 ft | 458 kts | 84° |
| 2026-05-07 15:06 | 33.48302 | -84.01760 | 17356 ft | 462 kts | 84° |
| 2026-05-07 15:06 | 33.48622 | -83.97875 | 17718 ft | 468 kts | 84° |
| 2026-05-07 15:06 | 33.48914 | -83.93988 | 18153 ft | 470 kts | 85° |
| 2026-05-07 15:06 | 33.49192 | -83.90095 | 18642 ft | 471 kts | 85° |
| 2026-05-07 15:07 | 33.49468 | -83.86218 | 18954 ft | 477 kts | 85° |
| 2026-05-07 15:07 | 33.49760 | -83.82239 | 19495 ft | 475 kts | 85° |
| 2026-05-07 15:07 | 33.50059 | -83.78311 | 19891 ft | 478 kts | 84° |
| 2026-05-07 15:07 | 33.50368 | -83.74349 | 20309 ft | 479 kts | 85° |
| 2026-05-07 15:08 | 33.50671 | -83.70363 | 20730 ft | 481 kts | 85° |
| 2026-05-07 15:08 | 33.50949 | -83.66379 | 21096 ft | 483 kts | 85° |
| 2026-05-07 15:08 | 33.51212 | -83.62367 | 21516 ft | 484 kts | 85° |
| 2026-05-07 15:08 | 33.51575 | -83.58401 | 21862 ft | 487 kts | 82° |
| 2026-05-07 15:09 | 33.52083 | -83.54350 | 22209 ft | 488 kts | 79° |
| 2026-05-07 15:09 | 33.52685 | -83.50372 | 22617 ft | 488 kts | 78° |
| 2026-05-07 15:09 | 33.53326 | -83.46371 | 22933 ft | 491 kts | 78° |
| 2026-05-07 15:09 | 33.53969 | -83.42332 | 23263 ft | 493 kts | 78° |
| 2026-05-07 15:10 | 33.54590 | -83.38318 | 23548 ft | 497 kts | 79° |
| 2026-05-07 15:10 | 33.55186 | -83.34206 | 23869 ft | 498 kts | 80° |
| 2026-05-07 15:10 | 33.55734 | -83.30112 | 24237 ft | 499 kts | 81° |
| 2026-05-07 15:10 | 33.56260 | -83.25996 | 24448 ft | 503 kts | 81° |
| 2026-05-07 15:11 | 33.56780 | -83.21898 | 24680 ft | 506 kts | 81° |
| 2026-05-07 15:11 | 33.57317 | -83.17705 | 25005 ft | 507 kts | 81° |
| 2026-05-07 15:11 | 33.57856 | -83.13551 | 25276 ft | 510 kts | 81° |
| 2026-05-07 15:11 | 33.58409 | -83.09332 | 25549 ft | 511 kts | 81° |
| 2026-05-07 15:12 | 33.58963 | -83.05162 | 25742 ft | 515 kts | 81° |
| 2026-05-07 15:12 | 33.59539 | -83.00878 | 25993 ft | 517 kts | 81° |
| 2026-05-07 15:12 | 33.60100 | -82.96637 | 26310 ft | 518 kts | 81° |
| 2026-05-07 15:12 | 33.60656 | -82.92364 | 26549 ft | 520 kts | 81° |
| 2026-05-07 15:13 | 33.61217 | -82.88088 | 26724 ft | 523 kts | 81° |
| 2026-05-07 15:13 | 33.61779 | -82.83798 | 27011 ft | 524 kts | 80° |
| 2026-05-07 15:13 | 33.62340 | -82.79498 | 27201 ft | 527 kts | 81° |
| 2026-05-07 15:13 | 33.62918 | -82.75130 | 27524 ft | 526 kts | 80° |
| 2026-05-07 15:14 | 33.63494 | -82.70852 | 27840 ft | 526 kts | 80° |
| 2026-05-07 15:14 | 33.64067 | -82.66502 | 28109 ft | 527 kts | 81° |
| 2026-05-07 15:14 | 33.64631 | -82.62163 | 28389 ft | 527 kts | 80° |
| 2026-05-07 15:14 | 33.65189 | -82.57873 | 28653 ft | 528 kts | 81° |
| 2026-05-07 15:15 | 33.65755 | -82.53512 | 28865 ft | 529 kts | 81° |
| 2026-05-07 15:15 | 33.66321 | -82.49127 | 28915 ft | 529 kts | 80° |
| 2026-05-07 15:15 | 33.67453 | -82.40394 | 28906 ft | 531 kts | 80° |
| 2026-05-07 15:16 | 33.68583 | -82.31682 | 28893 ft | 532 kts | 81° |
| 2026-05-07 15:16 | 33.69690 | -82.22922 | 28891 ft | 532 kts | 81° |
| 2026-05-07 15:17 | 33.70981 | -82.14178 | 28895 ft | 531 kts | 75° |
| 2026-05-07 15:17 | 33.73072 | -82.05688 | 28902 ft | 530 kts | 70° |
| 2026-05-07 15:18 | 33.75447 | -81.97367 | 28902 ft | 530 kts | 69° |
| 2026-05-07 15:18 | 33.77759 | -81.88946 | 28901 ft | 530 kts | 70° |
| 2026-05-07 15:19 | 33.79956 | -81.80486 | 28906 ft | 530 kts | 71° |
| 2026-05-07 15:19 | 33.82119 | -81.72061 | 28916 ft | 530 kts | 71° |
| 2026-05-07 15:20 | 33.84238 | -81.63550 | 28905 ft | 530 kts | 72° |
| 2026-05-07 15:20 | 33.86295 | -81.55054 | 28902 ft | 530 kts | 70° |
| 2026-05-07 15:21 | 33.89311 | -81.47079 | 28894 ft | 526 kts | 56° |
| 2026-05-07 15:21 | 33.93260 | -81.39693 | 28891 ft | 524 kts | 51° |
| 2026-05-07 15:22 | 33.97319 | -81.32436 | 28906 ft | 524 kts | 52° |
| 2026-05-07 15:22 | 34.01266 | -81.25020 | 28893 ft | 525 kts | 54° |
| 2026-05-07 15:23 | 34.05032 | -81.17537 | 28893 ft | 525 kts | 56° |
| 2026-05-07 15:23 | 34.08772 | -81.09958 | 28892 ft | 525 kts | 56° |
| 2026-05-07 15:24 | 34.12505 | -81.02386 | 28903 ft | 525 kts | 56° |
| 2026-05-07 15:24 | 34.16238 | -80.94836 | 28895 ft | 525 kts | 55° |
| 2026-05-07 15:25 | 34.19962 | -80.87316 | 28884 ft | 526 kts | 55° |
| 2026-05-07 15:25 | 34.23739 | -80.79755 | 28878 ft | 526 kts | 54° |
| 2026-05-07 15:26 | 34.27475 | -80.72173 | 28886 ft | 527 kts | 56° |
| 2026-05-07 15:26 | 34.31188 | -80.64552 | 28894 ft | 527 kts | 55° |
| 2026-05-07 15:27 | 34.34893 | -80.56930 | 28893 ft | 528 kts | 55° |
| 2026-05-07 15:27 | 34.38616 | -80.49292 | 28887 ft | 529 kts | 56° |
| 2026-05-07 15:28 | 34.42354 | -80.41557 | 28883 ft | 530 kts | 55° |
| 2026-05-07 15:28 | 34.46096 | -80.33873 | 28873 ft | 531 kts | 56° |
| 2026-05-07 15:29 | 34.47989 | -80.30004 | 28669 ft | 536 kts | 56° |
| 2026-05-07 15:29 | 34.49886 | -80.26150 | 28366 ft | 541 kts | 56° |
| 2026-05-07 15:29 | 34.51837 | -80.22242 | 28101 ft | 531 kts | 55° |
| 2026-05-07 15:29 | 34.53684 | -80.18458 | 27482 ft | 521 kts | 56° |
| 2026-05-07 15:30 | 34.55471 | -80.14711 | 26591 ft | 516 kts | 57° |
| 2026-05-07 15:30 | 34.57250 | -80.10944 | 25906 ft | 506 kts | 56° |
| 2026-05-07 15:30 | 34.58964 | -80.07309 | 25107 ft | 500 kts | 57° |
| 2026-05-07 15:30 | 34.60663 | -80.03691 | 24305 ft | 493 kts | 57° |
| 2026-05-07 15:31 | 34.62357 | -80.00105 | 23486 ft | 487 kts | 57° |
| 2026-05-07 15:31 | 34.64041 | -79.96576 | 22876 ft | 475 kts | 56° |
| 2026-05-07 15:31 | 34.65669 | -79.93173 | 22178 ft | 467 kts | 57° |
| 2026-05-07 15:31 | 34.67296 | -79.89807 | 21443 ft | 459 kts | 55° |
| 2026-05-07 15:32 | 34.69111 | -79.86694 | 20925 ft | 440 kts | 44° |
| 2026-05-07 15:32 | 34.71243 | -79.84231 | 20894 ft | 413 kts | 32° |
| 2026-05-07 15:32 | 34.73524 | -79.82184 | 20886 ft | 408 kts | 28° |
| 2026-05-07 15:32 | 34.75864 | -79.80270 | 20889 ft | 406 kts | 28° |
| 2026-05-07 15:33 | 34.78238 | -79.78326 | 20890 ft | 411 kts | 28° |
| 2026-05-07 15:33 | 34.80595 | -79.76351 | 20886 ft | 417 kts | 29° |
| 2026-05-07 15:33 | 34.83005 | -79.74300 | 20882 ft | 422 kts | 29° |
| 2026-05-07 15:33 | 34.85391 | -79.72241 | 20882 ft | 424 kts | 30° |
| 2026-05-07 15:34 | 34.87781 | -79.70138 | 20880 ft | 422 kts | 31° |
| 2026-05-07 15:34 | 34.90129 | -79.68035 | 20882 ft | 422 kts | 31° |
| 2026-05-07 15:34 | 34.92515 | -79.65872 | 20877 ft | 423 kts | 32° |
| 2026-05-07 15:34 | 34.94844 | -79.63751 | 20876 ft | 422 kts | 32° |
| 2026-05-07 15:35 | 34.97208 | -79.61599 | 20884 ft | 421 kts | 32° |
| 2026-05-07 15:35 | 34.99560 | -79.59469 | 20880 ft | 422 kts | 32° |
| 2026-05-07 15:35 | 35.01905 | -79.57355 | 20880 ft | 423 kts | 31° |
| 2026-05-07 15:35 | 35.04271 | -79.55239 | 20881 ft | 423 kts | 31° |
| 2026-05-07 15:36 | 35.06678 | -79.53087 | 20880 ft | 425 kts | 31° |
| 2026-05-07 15:36 | 35.09106 | -79.51019 | 20877 ft | 423 kts | 25° |
| 2026-05-07 15:36 | 35.11686 | -79.49490 | 20882 ft | 412 kts | 13° |
| 2026-05-07 15:36 | 35.14449 | -79.48626 | 20886 ft | 404 kts | 2° |
| 2026-05-07 15:37 | 35.17249 | -79.48195 | 20881 ft | 402 kts | 358° |
| 2026-05-07 15:37 | 35.20032 | -79.47876 | 20886 ft | 403 kts | 358° |
| 2026-05-07 15:37 | 35.22822 | -79.47544 | 20884 ft | 404 kts | 359° |
| 2026-05-07 15:37 | 35.25608 | -79.47177 | 20887 ft | 403 kts | 359° |
| 2026-05-07 15:38 | 35.28393 | -79.46776 | 20886 ft | 402 kts | 359° |
| 2026-05-07 15:38 | 35.31190 | -79.46343 | 20707 ft | 408 kts | 1° |
| 2026-05-07 15:38 | 35.34008 | -79.45639 | 20169 ft | 418 kts | 10° |
| 2026-05-07 15:38 | 35.36686 | -79.44264 | 19549 ft | 429 kts | 25° |
| 2026-05-07 15:39 | 35.39148 | -79.42182 | 18912 ft | 434 kts | 34° |
| 2026-05-07 15:39 | 35.41480 | -79.39790 | 18241 ft | 435 kts | 37° |
| 2026-05-07 15:39 | 35.43742 | -79.37365 | 17571 ft | 435 kts | 37° |
| 2026-05-07 15:39 | 35.46025 | -79.34944 | 16902 ft | 435 kts | 37° |
| 2026-05-07 15:40 | 35.48327 | -79.32564 | 16291 ft | 432 kts | 36° |
| 2026-05-07 15:40 | 35.50641 | -79.30237 | 15642 ft | 430 kts | 36° |
| 2026-05-07 15:40 | 35.52959 | -79.27949 | 14980 ft | 428 kts | 35° |
| 2026-05-07 15:40 | 35.55283 | -79.25649 | 14317 ft | 426 kts | 36° |
| 2026-05-07 15:41 | 35.57568 | -79.23364 | 13636 ft | 418 kts | 36° |
| 2026-05-07 15:41 | 35.59765 | -79.21161 | 13005 ft | 407 kts | 36° |
| 2026-05-07 15:41 | 35.61930 | -79.18972 | 12352 ft | 397 kts | 36° |
| 2026-05-07 15:41 | 35.63912 | -79.16660 | 12014 ft | 383 kts | 46° |
| 2026-05-07 15:42 | 35.65501 | -79.14156 | 11722 ft | 367 kts | 52° |
| 2026-05-07 15:42 | 35.66940 | -79.11594 | 11146 ft | 362 kts | 53° |
| 2026-05-07 15:42 | 35.68340 | -79.09070 | 10607 ft | 354 kts | 52° |
| 2026-05-07 15:42 | 35.69718 | -79.06629 | 10311 ft | 339 kts | 51° |
| 2026-05-07 15:43 | 35.71037 | -79.04325 | 10208 ft | 319 kts | 51° |
| 2026-05-07 15:43 | 35.72290 | -79.02183 | 10066 ft | 304 kts | 50° |
| 2026-05-07 15:43 | 35.73536 | -79.00109 | 9673 ft | 299 kts | 49° |
| 2026-05-07 15:43 | 35.74766 | -78.98096 | 9288 ft | 295 kts | 50° |
| 2026-05-07 15:44 | 35.76013 | -78.96079 | 8914 ft | 290 kts | 49° |
| 2026-05-07 15:44 | 35.77218 | -78.94119 | 8563 ft | 289 kts | 50° |
| 2026-05-07 15:44 | 35.78435 | -78.92172 | 8153 ft | 288 kts | 45° |
| 2026-05-07 15:44 | 35.79924 | -78.90571 | 8012 ft | 281 kts | 22° |
| 2026-05-07 15:45 | 35.81744 | -78.89803 | 8012 ft | 276 kts | 6° |
| 2026-05-07 15:45 | 35.83654 | -78.89394 | 7847 ft | 274 kts | 4° |
| 2026-05-07 15:45 | 35.85504 | -78.88957 | 7539 ft | 272 kts | 7° |
| 2026-05-07 15:45 | 35.87339 | -78.88403 | 7338 ft | 265 kts | 9° |
| 2026-05-07 15:46 | 35.90777 | -78.87260 | 6981 ft | 252 kts | 9° |
| 2026-05-07 15:46 | 35.92474 | -78.86721 | 6663 ft | 250 kts | 9° |
| 2026-05-07 15:46 | 35.94124 | -78.86148 | 6388 ft | 250 kts | 17° |
| 2026-05-07 15:47 | 35.95631 | -78.85023 | 6105 ft | 254 kts | 40° |
| 2026-05-07 15:47 | 35.96791 | -78.83429 | 5956 ft | 247 kts | 48° |
| 2026-05-07 15:47 | 35.97887 | -78.81853 | 5931 ft | 240 kts | 43° |
| 2026-05-07 15:47 | 35.99078 | -78.80381 | 5951 ft | 243 kts | 41° |
| 2026-05-07 15:48 | 36.00309 | -78.78924 | 5907 ft | 244 kts | 40° |
| 2026-05-07 15:48 | 36.01549 | -78.77500 | 5668 ft | 245 kts | 40° |
| 2026-05-07 15:48 | 36.02793 | -78.76051 | 5418 ft | 242 kts | 41° |
| 2026-05-07 15:48 | 36.03983 | -78.74609 | 5162 ft | 240 kts | 42° |
| 2026-05-07 15:49 | 36.05153 | -78.73144 | 4937 ft | 236 kts | 42° |
| 2026-05-07 15:49 | 36.06298 | -78.71721 | 4635 ft | 236 kts | 42° |
| 2026-05-07 15:49 | 36.07453 | -78.70273 | 4386 ft | 234 kts | 43° |
| 2026-05-07 15:49 | 36.08588 | -78.68843 | 4141 ft | 231 kts | 43° |
| 2026-05-07 15:50 | 36.09713 | -78.67442 | 3916 ft | 228 kts | 43° |
| 2026-05-07 15:50 | 36.10813 | -78.66052 | 3673 ft | 225 kts | 44° |
| 2026-05-07 15:50 | 36.11881 | -78.64668 | 3438 ft | 221 kts | 44° |
| 2026-05-07 15:50 | 36.12951 | -78.63310 | 3180 ft | 220 kts | 44° |
| 2026-05-07 15:51 | 36.13997 | -78.61954 | 2998 ft | 216 kts | 45° |
| 2026-05-07 15:51 | 36.15046 | -78.60594 | 2993 ft | 219 kts | 44° |
| 2026-05-07 15:51 | 36.16081 | -78.59207 | 2994 ft | 220 kts | 45° |
| 2026-05-07 15:51 | 36.17117 | -78.57811 | 3001 ft | 219 kts | 44° |
| 2026-05-07 15:52 | 36.18039 | -78.56312 | 2987 ft | 223 kts | 65° |
| 2026-05-07 15:52 | 36.18191 | -78.54436 | 2998 ft | 227 kts | 104° |
| 2026-05-07 15:52 | 36.17337 | -78.52825 | 3005 ft | 231 kts | 144° |
| 2026-05-07 15:52 | 36.15842 | -78.52145 | 2994 ft | 227 kts | 175° |
| 2026-05-07 15:53 | 36.14305 | -78.52254 | 3002 ft | 213 kts | 192° |
| 2026-05-07 15:53 | 36.12864 | -78.52628 | 2994 ft | 212 kts | 193° |
| 2026-05-07 15:53 | 36.11433 | -78.53040 | 3010 ft | 210 kts | 197° |
| 2026-05-07 15:53 | 36.10040 | -78.53598 | 2990 ft | 208 kts | 202° |
| 2026-05-07 15:54 | 36.08743 | -78.54352 | 2985 ft | 207 kts | 217° |
| 2026-05-07 15:54 | 36.07607 | -78.55483 | 3002 ft | 214 kts | 221° |
| 2026-05-07 15:54 | 36.06451 | -78.56672 | 2989 ft | 214 kts | 223° |
| 2026-05-07 15:54 | 36.05387 | -78.57941 | 2978 ft | 215 kts | 227° |
| 2026-05-07 15:55 | 36.04334 | -78.59248 | 2985 ft | 216 kts | 227° |
| 2026-05-07 15:55 | 36.03274 | -78.60555 | 2983 ft | 211 kts | 226° |
| 2026-05-07 15:55 | 36.02267 | -78.61810 | 2995 ft | 205 kts | 227° |
| 2026-05-07 15:55 | 36.01258 | -78.63073 | 3005 ft | 206 kts | 228° |
| 2026-05-07 15:56 | 36.00253 | -78.64325 | 3002 ft | 204 kts | 227° |
| 2026-05-07 15:56 | 35.99241 | -78.65573 | 2996 ft | 206 kts | 227° |
| 2026-05-07 15:56 | 35.98226 | -78.66858 | 2863 ft | 209 kts | 226° |
| 2026-05-07 15:56 | 35.97207 | -78.68104 | 2563 ft | 208 kts | 225° |
| 2026-05-07 15:57 | 35.96196 | -78.69364 | 2275 ft | 204 kts | 226° |
| 2026-05-07 15:57 | 35.95203 | -78.70592 | 1985 ft | 202 kts | 226° |
| 2026-05-07 15:57 | 35.94222 | -78.71800 | 1744 ft | 195 kts | 225° |
| 2026-05-07 15:57 | 35.93285 | -78.72968 | 1492 ft | 186 kts | 226° |
| 2026-05-07 15:58 | 35.92415 | -78.74038 | 1266 ft | 167 kts | 225° |
| 2026-05-07 15:58 | 35.91633 | -78.75014 | 1013 ft | 150 kts | 225° |
| 2026-05-07 15:58 | 35.90926 | -78.75889 | 862 ft | 143 kts | 225° |
| 2026-05-07 15:58 | 35.90220 | -78.76765 | 640 ft | 143 kts | 224° |
| 2026-05-07 15:59 | 35.89526 | -78.77625 | 441 ft | 137 kts | 224° |
| 2026-05-07 15:59 | 35.88897 | -78.78422 | 393 ft | 118 kts | 224° |
| 2026-05-07 15:59 | 35.88402 | -78.79010 | 391 ft | 77 kts | 226° |
| 2026-05-07 15:59 | 35.88118 | -78.79363 | 381 ft | 45 kts | 224° |
| 2026-05-07 16:00 | 35.87939 | -78.79464 | 381 ft | 6 kts | 155° |
| 2026-05-07 16:00 | 35.87938 | -78.79463 | 381 ft | 0 kts | 154° |
| 2026-05-07 16:01 | 35.87917 | -78.79447 | 382 ft | 9 kts | 135° |
| 2026-05-07 16:01 | 35.87847 | -78.79414 | 386 ft | 13 kts | 209° |
| 2026-05-07 16:01 | 35.87785 | -78.79487 | 385 ft | 12 kts | 224° |
| 2026-05-07 16:02 | 35.87720 | -78.79564 | 383 ft | 12 kts | 224° |
| 2026-05-07 16:02 | 35.87656 | -78.79640 | 382 ft | 12 kts | 225° |
| 2026-05-07 16:02 | 35.87595 | -78.79719 | 380 ft | 12 kts | 226° |
| 2026-05-07 16:02 | 35.87534 | -78.79732 | 380 ft | 4 kts | 120° |
| 2026-05-07 16:03 | 35.87529 | -78.79712 | 381 ft | 0 kts | 99° |
| 2026-05-07 16:03 | 35.87529 | -78.79710 | 381 ft | 0 kts | 98° |
| 2026-05-07 16:03 | 35.87526 | -78.79691 | 382 ft | 1 kts | 98° |
| 2026-05-07 16:03 | 35.87526 | -78.79682 | 382 ft | 1 kts | 97° |
| 2026-05-07 16:04 | 35.87526 | -78.79681 | 382 ft | 0 kts | 97° |